Hauptseite
METAR-TAF:

METAR-TAF

Flughäfen :

Makkovik, Neufundland und Labrador, Kanada

Breite: 55-05N, Länge: 059-11W, Höhe: 71 m

Beobachtung

Neuester Wetterbericht von vor 1 Stunde und 24 Minuten, um 20:00 UTC
Wind 12 kt aus West/Südwest
Temperatur 8°C
Luftfeuchtigkeit 42%
Luftdruck 1002 hPa
Sichtweite: 24.1 km
Aufgelockert bewölkt in der Höhe von 6000 ft

METAR: CYFT 152000Z 25012KT 15SM SCT060 08/M04 A2960 RMK SC4 / LAST STFD OBS / NEXT 16900Z / SLP028

Zeit: 18:24 (21:24 UTC)


TAF: fehlend

Wetterbeobachtungen und Prognosen von mehr als 4000 Flughäfen (METAR und TAF Bericht).

Die verfügbaren Stationen werden durch gelbe und rote Markierungen auf der Karte dargestellt.

Führen Sie die Maus auf sie, um den Namen der Station zu sehen.

Darauf klicken, um die Beobachtung von Wetterbeobachtungen und Prognosen zu sehen.

Um die Karte zu ändern : klicken Sie auf den grünen Tasten mit einem schwarzen Kreuz Zum Vergrößern, auf den grünen Button mit einem Gedankenstrich zu verkleinern, oder auf die grünen Pfeile für benachbarte Karten.


METAR-TAF: